Time;durP1;ratioP1;P1;durP2;ratioP2;P2;SDS_P1;SDS_P2;PMS_P1;PMS_P2;Temp;Humidity;BMP_temperature;BMP_pressure;BME280_temperature;BME280_humidity;BME280_pressure;Samples;Min_cycle;Max_cycle;Signal;HPM_P1;HPM_P2
2024/02/17 13:03:55;;;;;;;3.50;2.80;;;;;;;12.08;96.55;101239.12;181283;1263;46052;-63
2024/02/17 13:07:59;;;;;;;6.90;3.40;;;;;;;11.94;96.55;101240.77;183803;1245;44860;-63
2024/02/17 13:12:01;;;;;;;5.50;3.80;;;;;;;11.87;97.49;101246.98;183530;1244;44205;-64
2024/02/17 13:16:05;;;;;;;16.50;10.30;;;;;;;11.79;96.83;101260.68;183634;1245;46028;-63
2024/02/17 13:20:10;;;;;;;18.20;11.10;;;;;;;11.73;97.43;101272.48;183770;1244;45927;-64
2024/02/17 13:24:14;;;;;;;13.90;9.80;;;;;;;11.71;96.69;101268.38;183732;1247;57377;-64
2024/02/17 13:28:16;;;;;;;8.50;5.00;;;;;;;11.71;98.60;101277.55;183727;1249;43622;-63
2024/02/17 13:32:20;;;;;;;4.50;3.90;;;;;;;11.62;97.45;101283.35;183823;1244;46112;-64
2024/02/17 13:36:22;;;;;;;5.60;4.10;;;;;;;11.61;99.10;101288.26;183774;1244;45234;-62
2024/02/17 13:45:14;;;;;;;5.00;3.50;;;;;;;11.52;98.55;101288.33;184201;1244;58665;31
2024/02/17 13:49:17;;;;;;;8.00;3.20;;;;;;;11.47;96.63;101289.20;184756;1233;43639;-62
2024/02/17 13:53:20;;;;;;;6.00;3.10;;;;;;;11.45;96.42;101301.23;185069;1235;43692;-62
2024/02/17 13:57:23;;;;;;;4.60;3.50;;;;;;;11.49;98.64;101305.77;185011;1234;43476;-62
2024/02/17 14:37:31;;;;;;;8.00;5.30;;;;;;;10.44;100.00;101338.80;180717;1263;579830;-64
2024/02/17 14:41:36;;;;;;;12.30;5.50;;;;;;;10.60;100.00;101343.11;183293;1244;59381;-64
2024/02/17 14:45:39;;;;;;;6.70;4.60;;;;;;;10.53;100.00;101354.89;185057;1233;43893;-65
2024/02/17 14:49:52;;;;;;;8.40;5.90;;;;;;;10.32;100.00;101358.31;185288;1234;44638;-64
2024/02/17 14:53:54;;;;;;;9.60;6.30;;;;;;;10.23;100.00;101356.77;185213;1234;44676;-64
2024/02/17 14:57:56;;;;;;;9.80;6.50;;;;;;;10.24;100.00;101368.76;185206;1234;45999;-65
2024/02/17 15:01:57;;;;;;;13.70;8.40;;;;;;;10.26;100.00;101376.06;185213;1234;57656;-64
2024/02/17 15:06:02;;;;;;;8.60;5.80;;;;;;;10.25;100.00;101378.08;184960;1234;43839;-64
2024/02/17 15:10:07;;;;;;;6.60;5.70;;;;;;;10.31;100.00;101386.05;185089;1233;45931;-64
2024/02/17 15:14:15;;;;;;;10.60;6.90;;;;;;;10.33;100.00;101390.16;185194;1234;45893;-64
2024/02/17 15:18:23;;;;;;;9.00;6.30;;;;;;;10.31;100.00;101397.17;185237;1233;45385;-64
2024/02/17 15:22:31;;;;;;;11.60;6.10;;;;;;;10.31;100.00;101404.47;185287;1233;58680;-64
2024/02/17 15:26:34;;;;;;;10.10;6.90;;;;;;;10.30;100.00;101405.23;185287;1233;44732;-64
2024/02/17 15:30:36;;;;;;;10.30;7.40;;;;;;;10.27;100.00;101416.77;185222;1233;46126;-64
2024/02/17 15:34:38;;;;;;;10.60;6.40;;;;;;;10.26;100.00;101417.77;185038;1237;46004;-64
2024/02/17 15:38:39;;;;;;;7.40;5.60;;;;;;;10.19;100.00;101420.09;185118;1235;45932;-64
2024/02/17 15:42:41;;;;;;;9.00;7.10;;;;;;;10.15;100.00;101428.69;185208;1233;58421;-63
2024/02/17 15:46:43;;;;;;;11.80;7.30;;;;;;;10.15;100.00;101434.70;185069;1233;45932;-64
2024/02/17 15:50:44;;;;;;;7.50;6.40;;;;;;;10.21;100.00;101435.27;185206;1233;45994;-64
2024/02/17 15:54:48;;;;;;;8.70;6.00;;;;;;;10.22;100.00;101447.61;185247;1233;45878;-64
2024/02/17 15:58:49;;;;;;;9.40;7.40;;;;;;;10.21;100.00;101455.64;185168;1233;43684;-63
2024/02/17 16:02:52;;;;;;;12.50;8.90;;;;;;;10.22;100.00;101455.42;185214;1233;57926;-63
2024/02/17 16:06:54;;;;;;;10.80;7.30;;;;;;;10.23;100.00;101462.98;185236;1234;45916;-63
2024/02/17 16:10:56;;;;;;;7.20;5.50;;;;;;;10.24;100.00;101475.33;185241;1234;45073;-63
2024/02/17 16:15:07;;;;;;;9.20;7.20;;;;;;;10.16;100.00;101479.52;185207;1233;44623;-62
2024/02/17 16:23:45;;;;;;;7.60;4.10;;;;;;;10.15;100.00;101491.63;184970;1235;58081;-64
2024/02/17 16:27:54;;;;;;;5.00;4.10;;;;;;;10.15;100.00;101502.27;184898;1235;46109;-63
2024/02/17 16:32:00;;;;;;;6.30;4.50;;;;;;;10.19;100.00;101504.15;184984;1235;44675;-63
2024/02/17 16:36:21;;;;;;;11.40;4.90;;;;;;;10.17;100.00;101513.65;184881;1235;44844;-64
2024/02/17 16:40:23;;;;;;;6.10;4.60;;;;;;;10.18;100.00;101519.25;184976;1235;45826;-63
2024/02/17 16:44:25;;;;;;;16.80;8.30;;;;;;;10.17;100.00;101526.41;184761;1235;59452;-64
2024/02/17 16:48:27;;;;;;;9.70;6.30;;;;;;;10.21;100.00;101536.31;184915;1235;43443;-63
2024/02/17 16:52:30;;;;;;;6.80;5.70;;;;;;;10.23;100.00;101540.23;185077;1235;43959;-64
2024/02/17 16:56:31;;;;;;;5.60;4.50;;;;;;;10.21;100.00;101550.45;184888;1235;45963;-63
2024/02/17 17:00:33;;;;;;;7.10;4.70;;;;;;;10.21;100.00;101551.71;184843;1235;43465;-66
2024/02/17 17:04:35;;;;;;;11.70;9.80;;;;;;;10.23;100.00;101556.89;185100;1235;57934;-63
2024/02/17 17:08:38;;;;;;;4.50;2.50;;;;;;;10.15;100.00;101557.34;185003;1235;43612;-65
2024/02/17 17:12:40;;;;;;;2.10;1.80;;;;;;;10.11;100.00;101562.76;184905;1235;44486;-63
2024/02/17 17:16:44;;;;;;;4.00;2.90;;;;;;;10.14;100.00;101571.95;184820;1235;44187;-63
2024/02/17 17:20:45;;;;;;;7.00;4.10;;;;;;;10.10;100.00;101583.35;184985;1235;45982;-64
2024/02/17 17:24:57;;;;;;;3.90;3.00;;;;;;;10.06;100.00;101596.55;184860;1235;58422;-64
2024/02/17 17:29:01;;;;;;;7.00;4.00;;;;;;;10.06;100.00;101604.15;184994;1235;45994;-63
2024/02/17 17:33:04;;;;;;;3.50;2.50;;;;;;;10.06;100.00;101609.84;184911;1235;44725;-64
2024/02/17 17:37:07;;;;;;;5.20;4.30;;;;;;;10.04;100.00;101618.96;184930;1235;43988;-63
2024/02/17 17:41:09;;;;;;;6.50;3.10;;;;;;;10.10;100.00;101628.38;184918;1237;45885;-63
2024/02/17 17:45:13;;;;;;;3.00;2.30;;;;;;;10.02;100.00;101635.58;184792;1238;59189;-63
2024/02/17 17:49:18;;;;;;;1.70;1.10;;;;;;;9.95;98.93;101644.70;184896;1235;45905;-64
2024/02/17 17:53:28;;;;;;;1.50;1.40;;;;;;;9.80;96.83;101657.56;184957;1235;43581;-64
2024/02/17 17:57:30;;;;;;;4.10;1.50;;;;;;;9.62;97.24;101659.09;184904;1235;46042;-64
2024/02/17 18:01:32;;;;;;;3.20;2.10;;;;;;;9.49;97.45;101670.64;184915;1236;44596;-63
2024/02/17 18:05:34;;;;;;;4.70;2.20;;;;;;;9.42;98.41;101674.19;184941;1235;58142;-64
2024/02/17 18:09:35;;;;;;;1.70;1.50;;;;;;;9.28;99.42;101681.14;184864;1235;43897;-64
2024/02/17 18:13:38;;;;;;;1.10;1.00;;;;;;;9.22;99.65;101688.85;184898;1235;45874;-64
2024/02/17 18:17:43;;;;;;;2.30;1.80;;;;;;;9.12;99.17;101704.98;184819;1235;45354;-64
2024/02/17 18:21:45;;;;;;;1.30;1.20;;;;;;;9.08;97.44;101707.52;184978;1235;43965;-63
2024/02/17 18:25:47;;;;;;;3.60;1.80;;;;;;;9.06;98.42;101714.67;184860;1235;59119;-65
2024/02/17 18:29:48;;;;;;;3.00;1.70;;;;;;;8.98;96.53;101718.27;184899;1235;45947;-63
2024/02/17 18:33:50;;;;;;;1.50;1.40;;;;;;;8.91;97.15;101723.08;184913;1235;43595;-63
2024/02/17 18:37:54;;;;;;;2.30;1.60;;;;;;;8.80;98.48;101728.41;184986;1238;46079;-63
2024/02/17 18:41:58;;;;;;;2.20;1.80;;;;;;;8.71;98.29;101736.65;184974;1235;45120;-63
2024/02/17 18:46:02;;;;;;;2.50;1.10;;;;;;;8.64;97.79;101750.06;184766;1235;59080;-63
2024/02/17 18:50:06;;;;;;;2.60;1.10;;;;;;;8.57;97.59;101758.55;184855;1235;46042;-63
2024/02/17 18:54:09;;;;;;;2.40;1.00;;;;;;;8.46;97.18;101756.94;184916;1235;44463;-63
2024/02/17 18:58:11;;;;;;;3.70;1.40;;;;;;;8.41;97.72;101764.59;184984;1236;46157;-64
2024/02/17 19:02:13;;;;;;;8.10;1.50;;;;;;;8.34;98.12;101766.18;184980;1235;45286;-63
2024/02/17 19:06:17;;;;;;;2.00;0.50;;;;;;;8.32;98.88;101772.11;184883;1235;58743;-63
2024/02/17 19:10:21;;;;;;;12.30;2.30;;;;;;;8.18;97.89;101780.02;184970;1235;46066;-63
2024/02/17 19:14:25;;;;;;;1.50;1.20;;;;;;;8.18;97.09;101784.62;184963;1239;46047;-63
2024/02/17 19:18:30;;;;;;;8.30;2.40;;;;;;;8.18;98.39;101788.70;184921;1236;44014;-63
2024/02/17 19:22:31;;;;;;;4.40;1.90;;;;;;;8.14;99.06;101793.48;184971;1235;44596;-62
2024/02/17 19:26:33;;;;;;;1.50;1.40;;;;;;;8.02;98.25;101789.75;184906;1235;59174;-63
2024/02/17 19:30:37;;;;;;;3.20;1.00;;;;;;;8.01;98.62;101794.27;184841;1235;43793;-62
2024/02/17 19:35:10;;;;;;;2.20;1.70;;;;;;;7.96;99.62;101797.84;184921;1235;44682;-62
2024/02/17 19:39:13;;;;;;;5.20;1.30;;;;;;;7.93;99.57;101807.86;185047;1235;43733;-62
2024/02/17 19:43:14;;;;;;;3.70;1.60;;;;;;;7.88;99.92;101814.09;184877;1235;43470;-63
2024/02/17 19:47:21;;;;;;;4.60;2.20;;;;;;;7.82;100.00;101818.06;184628;1235;59120;-64
2024/02/17 19:51:23;;;;;;;1.90;1.70;;;;;;;7.83;100.00;101830.23;184916;1235;43740;-61
2024/02/17 19:55:26;;;;;;;4.00;1.70;;;;;;;7.76;100.00;101827.72;184913;1235;43712;-64
2024/02/17 19:59:28;;;;;;;3.40;1.60;;;;;;;7.72;100.00;101834.08;184860;1235;43615;-63
2024/02/17 20:03:30;;;;;;;4.60;2.00;;;;;;;7.68;100.00;101839.55;184881;1235;44549;-63
2024/02/17 20:07:35;;;;;;;4.90;3.20;;;;;;;7.64;100.00;101847.31;184767;1239;58551;-63
2024/02/17 20:11:37;;;;;;;6.70;1.60;;;;;;;7.56;100.00;101856.32;184782;1235;45524;-63
2024/02/17 20:15:41;;;;;;;3.00;2.60;;;;;;;7.55;100.00;101862.90;184826;1235;44597;-63
2024/02/17 20:19:44;;;;;;;3.10;1.60;;;;;;;7.52;100.00;101865.48;184862;1235;45913;-63
2024/02/17 20:23:53;;;;;;;4.20;2.30;;;;;;;7.53;100.00;101869.30;184952;1235;43743;-63
2024/02/17 20:27:55;;;;;;;5.50;2.50;;;;;;;7.55;100.00;101877.01;184811;1235;59191;-64
2024/02/17 20:31:58;;;;;;;5.30;2.40;;;;;;;7.53;100.00;101877.61;184884;1235;43561;-63
2024/02/17 20:36:00;;;;;;;14.30;2.70;;;;;;;7.50;100.00;101884.27;184793;1235;45951;-63
2024/02/17 20:40:04;;;;;;;5.10;2.50;;;;;;;7.53;100.00;101887.66;184846;1235;44904;-63
2024/02/17 20:44:56;;;;;;;5.20;2.20;;;;;;;7.54;100.00;101886.60;184962;1235;43766;-63
2024/02/17 20:48:58;;;;;;;4.50;2.30;;;;;;;7.49;100.00;101885.75;184899;1235;58478;-64
2024/02/17 20:53:02;;;;;;;4.90;2.50;;;;;;;7.47;100.00;101885.64;184881;1235;43861;-63
2024/02/17 20:57:06;;;;;;;3.60;2.70;;;;;;;7.51;100.00;101882.85;184824;1235;44979;-65
2024/02/17 21:01:08;;;;;;;4.10;2.60;;;;;;;7.48;100.00;101886.34;184958;1235;44502;-65
2024/02/17 21:05:10;;;;;;;3.90;2.40;;;;;;;7.39;100.00;101894.10;184740;1235;45888;-64
2024/02/17 21:09:15;;;;;;;5.50;3.00;;;;;;;7.40;100.00;101900.08;184781;1235;57854;-64
2024/02/17 21:13:17;;;;;;;5.40;2.20;;;;;;;7.35;100.00;101908.20;184856;1235;43688;-64
2024/02/17 21:17:19;;;;;;;4.80;3.80;;;;;;;7.26;100.00;101913.00;184817;1235;44853;-64
2024/02/17 21:21:27;;;;;;;5.60;3.60;;;;;;;7.29;100.00;101910.60;184827;1235;44699;-64
2024/02/17 21:25:37;;;;;;;8.20;3.10;;;;;;;7.27;100.00;101914.71;184897;1235;43614;-64
2024/02/17 21:29:39;;;;;;;5.30;2.70;;;;;;;7.27;100.00;101917.20;184938;1235;58312;-64
2024/02/17 21:33:42;;;;;;;5.30;2.80;;;;;;;7.34;100.00;101910.23;184937;1235;45864;-64
2024/02/17 21:37:44;;;;;;;7.20;4.20;;;;;;;7.30;100.00;101919.90;185008;1235;45961;-62
2024/02/17 21:42:13;;;;;;;6.20;4.40;;;;;;;7.17;100.00;101928.90;184871;1235;45254;-62
2024/02/17 21:46:16;;;;;;;7.70;3.00;;;;;;;7.11;100.00;101934.80;184832;1235;45834;-62
2024/02/17 21:50:18;;;;;;;5.80;3.90;;;;;;;7.05;100.00;101935.73;185076;1235;58461;-63
2024/02/17 21:54:19;;;;;;;6.40;3.90;;;;;;;7.04;100.00;101936.13;184932;1235;43537;-63
2024/02/17 21:59:14;;;;;;;5.30;3.40;;;;;;;7.05;100.00;101933.63;184879;1235;46105;-63
2024/02/17 22:03:16;;;;;;;14.40;6.80;;;;;;;7.07;100.00;101936.54;185001;1235;43864;-63
2024/02/17 22:07:18;;;;;;;7.40;4.80;;;;;;;7.06;100.00;101941.52;184960;1235;44520;-63
2024/02/17 22:11:21;;;;;;;8.80;3.80;;;;;;;7.08;100.00;101941.62;184838;1235;59319;-63
2024/02/17 22:15:24;;;;;;;5.00;3.60;;;;;;;7.11;100.00;101939.55;184626;1235;46124;-63
2024/02/17 22:19:44;;;;;;;12.60;3.90;;;;;;;7.13;100.00;101944.25;184777;1235;46057;-63
2024/02/17 22:23:46;;;;;;;7.80;4.20;;;;;;;7.16;100.00;101948.19;184804;1235;45347;-64
2024/02/17 22:27:49;;;;;;;7.70;4.40;;;;;;;7.14;100.00;101949.67;184890;1235;45974;-64
2024/02/17 22:31:51;;;;;;;7.70;3.70;;;;;;;7.12;100.00;101953.61;184711;1235;58443;-63
2024/02/17 22:36:20;;;;;;;8.80;5.60;;;;;;;7.12;100.00;101956.66;184894;1235;46076;-64
2024/02/17 22:40:22;;;;;;;4.90;3.00;;;;;;;7.13;100.00;101956.96;184841;1239;44508;-63
2024/02/17 22:44:24;;;;;;;14.20;3.10;;;;;;;7.12;100.00;101958.59;184854;1235;45935;-63
2024/02/17 22:48:29;;;;;;;8.50;5.20;;;;;;;7.13;100.00;101963.11;184789;1235;45267;-63
2024/02/17 22:52:31;;;;;;;8.20;4.10;;;;;;;7.08;100.00;101964.71;184747;1239;58236;-63
2024/02/17 22:56:34;;;;;;;6.90;3.80;;;;;;;7.15;100.00;101969.75;184797;1235;45490;-63
2024/02/17 23:00:37;;;;;;;4.90;4.20;;;;;;;7.22;100.00;101973.34;184963;1235;43719;-64
2024/02/17 23:04:39;;;;;;;9.80;6.10;;;;;;;7.25;100.00;101968.63;184662;1235;45350;-64
2024/02/17 23:08:51;;;;;;;8.60;4.60;;;;;;;7.23;100.00;101976.32;184862;1235;45874;-63
2024/02/17 23:12:53;;;;;;;9.50;5.10;;;;;;;7.09;100.00;101979.86;184750;1235;58167;-63
2024/02/17 23:16:54;;;;;;;7.60;4.60;;;;;;;7.00;100.00;101980.56;184891;1235;43520;-64
2024/02/17 23:20:56;;;;;;;7.20;4.80;;;;;;;7.01;100.00;101983.38;184857;1235;46456;-64
2024/02/17 23:24:58;;;;;;;5.20;3.80;;;;;;;6.92;100.00;101977.34;184895;1235;43542;-64
2024/02/17 23:29:00;;;;;;;9.00;4.20;;;;;;;6.92;100.00;101984.41;184739;1235;46090;-63
2024/02/17 23:33:02;;;;;;;7.20;4.10;;;;;;;6.94;100.00;101975.88;184942;1235;59021;-63
2024/02/17 23:37:04;;;;;;;25.00;5.20;;;;;;;6.95;100.00;101978.65;184894;1235;43952;-64
2024/02/17 23:41:07;;;;;;;10.10;5.20;;;;;;;6.93;100.00;101981.91;184842;1235;45980;-63
2024/02/17 23:45:13;;;;;;;7.00;4.00;;;;;;;6.89;100.00;101983.66;184901;1235;45970;-64
2024/02/17 23:49:15;;;;;;;13.50;5.20;;;;;;;6.86;100.00;101986.56;184923;1235;43463;-63
2024/02/17 23:53:25;;;;;;;11.70;4.30;;;;;;;6.84;100.00;101994.60;184916;1235;58357;-64
2024/02/17 23:57:30;;;;;;;10.40;4.40;;;;;;;6.87;100.00;101996.08;184989;1235;43772;-65
